createdAt,value
2023-09-06T00:01:18.672Z,21.66
2023-09-06T00:03:45.304Z,21.61
2023-09-06T00:06:12.206Z,21.66
2023-09-06T00:08:38.757Z,21.61
2023-09-06T00:11:07.943Z,21.56
2023-09-06T00:13:35.643Z,21.51
2023-09-06T00:16:03.354Z,21.58
2023-09-06T00:18:30.364Z,21.61
2023-09-06T00:20:58.897Z,21.57
2023-09-06T00:23:26.635Z,21.59
2023-09-06T00:25:54.849Z,21.55
2023-09-06T00:28:25.171Z,21.62
2023-09-06T00:30:53.554Z,21.60
2023-09-06T00:33:20.147Z,21.61
2023-09-06T00:35:46.686Z,21.63
2023-09-06T00:38:13.104Z,21.58
2023-09-06T00:40:41.144Z,21.56
2023-09-06T00:43:09.272Z,21.57
2023-09-06T00:45:43.286Z,21.52
2023-09-06T00:48:11.450Z,21.47
2023-09-06T00:50:40.266Z,21.46
2023-09-06T00:53:08.305Z,21.43
2023-09-06T00:55:35.401Z,21.41
2023-09-06T00:58:02.270Z,21.40
2023-09-06T01:00:29.434Z,21.39
2023-09-06T01:02:56.478Z,21.36
2023-09-06T01:05:25.740Z,21.31
2023-09-06T01:07:56.454Z,21.36
2023-09-06T01:10:22.977Z,21.31
2023-09-06T01:12:49.881Z,21.25
2023-09-06T01:15:16.760Z,21.23
2023-09-06T01:17:44.693Z,21.23
2023-09-06T01:20:30.525Z,21.23
2023-09-06T01:22:59.964Z,21.18
2023-09-06T01:25:26.545Z,21.17
2023-09-06T01:27:53.205Z,21.03
2023-09-06T01:30:19.730Z,21.02
2023-09-06T01:32:46.384Z,21.06
2023-09-06T01:35:12.982Z,21.06
2023-09-06T01:37:39.505Z,20.94
2023-09-06T01:40:33.101Z,21.03
2023-09-06T01:42:59.941Z,20.88
2023-09-06T01:45:28.501Z,20.97
2023-09-06T01:47:56.138Z,20.86
2023-09-06T01:50:22.714Z,20.76
2023-09-06T01:52:49.421Z,20.77
2023-09-06T01:55:16.121Z,20.84
2023-09-06T01:57:42.666Z,20.70
2023-09-06T02:00:24.319Z,20.70
2023-09-06T02:02:51.531Z,20.68
2023-09-06T02:05:18.090Z,20.61
2023-09-06T02:07:48.173Z,20.61
2023-09-06T02:10:14.855Z,20.54
2023-09-06T02:12:41.421Z,20.61
2023-09-06T02:15:09.285Z,20.63
2023-09-06T02:17:36.442Z,20.59
2023-09-06T02:20:14.608Z,20.62
2023-09-06T02:22:42.019Z,20.62
2023-09-06T02:25:09.998Z,20.52
2023-09-06T02:27:37.364Z,20.53
2023-09-06T02:30:06.344Z,20.53
2023-09-06T02:32:33.626Z,20.41
2023-09-06T02:35:00.276Z,20.43
2023-09-06T02:37:26.812Z,20.48
2023-09-06T02:39:56.303Z,20.49
2023-09-06T02:42:22.860Z,20.36
2023-09-06T02:44:49.329Z,20.39
2023-09-06T02:47:18.990Z,20.39
2023-09-06T02:49:46.957Z,20.46
2023-09-06T02:52:22.258Z,20.47
2023-09-06T02:54:49.109Z,20.43
2023-09-06T02:57:18.494Z,20.35
2023-09-06T02:59:45.055Z,20.43
2023-09-06T03:02:13.926Z,20.35
2023-09-06T03:04:42.181Z,20.38
2023-09-06T03:07:09.799Z,20.28
2023-09-06T03:09:40.148Z,20.25
2023-09-06T03:12:13.103Z,20.24
2023-09-06T03:14:44.796Z,20.17
2023-09-06T03:17:12.543Z,20.05
2023-09-06T03:19:42.630Z,20.00
2023-09-06T03:22:10.803Z,19.98
2023-09-06T03:24:41.549Z,19.97
2023-09-06T03:27:09.117Z,19.87
2023-09-06T03:29:39.054Z,19.94
2023-09-06T03:32:09.362Z,19.95
2023-09-06T03:34:42.190Z,19.96
2023-09-06T03:37:10.119Z,19.89
2023-09-06T03:39:42.172Z,19.86
2023-09-06T03:42:09.779Z,19.77
2023-09-06T03:44:37.139Z,19.87
2023-09-06T03:47:07.524Z,19.95
2023-09-06T03:49:36.975Z,19.83
2023-09-06T03:52:05.793Z,19.85
2023-09-06T03:54:35.857Z,19.92
2023-09-06T03:57:03.478Z,19.85
2023-09-06T03:59:32.910Z,19.91
2023-09-06T04:01:59.863Z,19.81
2023-09-06T04:04:26.783Z,19.67
2023-09-06T04:06:53.558Z,19.63
2023-09-06T04:09:20.090Z,19.62
2023-09-06T04:11:47.827Z,19.72
2023-09-06T04:14:14.648Z,19.68
2023-09-06T04:16:41.134Z,19.61
2023-09-06T04:19:07.732Z,19.68
2023-09-06T04:21:34.239Z,19.55
2023-09-06T04:24:00.674Z,19.54
2023-09-06T04:26:27.190Z,19.62
2023-09-06T04:28:53.847Z,19.61
2023-09-06T04:31:20.417Z,19.47
2023-09-06T04:33:47.436Z,19.54
2023-09-06T04:36:13.939Z,19.66
2023-09-06T04:38:40.455Z,19.49
2023-09-06T04:41:06.962Z,19.40
2023-09-06T04:43:34.139Z,19.47
2023-09-06T04:46:01.085Z,19.49
2023-09-06T04:48:28.082Z,19.40
2023-09-06T04:50:57.578Z,19.57
2023-09-06T04:53:24.056Z,19.45
2023-09-06T04:55:51.148Z,19.52
2023-09-06T04:58:19.319Z,19.39
2023-09-06T05:00:49.131Z,19.47
2023-09-06T05:03:19.249Z,19.54
2023-09-06T05:05:47.495Z,19.40
2023-09-06T05:08:14.362Z,19.44
2023-09-06T05:10:40.891Z,19.35
2023-09-06T05:13:09.511Z,19.52
2023-09-06T05:15:37.218Z,19.37
2023-09-06T05:18:05.262Z,19.42
2023-09-06T05:20:36.647Z,19.43
2023-09-06T05:23:14.091Z,19.39
2023-09-06T05:25:41.719Z,19.34
2023-09-06T05:28:10.812Z,19.42
2023-09-06T05:30:45.651Z,19.39
2023-09-06T05:33:14.026Z,19.32
2023-09-06T05:35:42.412Z,19.42
2023-09-06T05:38:10.678Z,19.39
2023-09-06T05:40:38.058Z,19.38
2023-09-06T05:43:07.925Z,19.41
2023-09-06T05:45:34.396Z,19.50
2023-09-06T05:48:00.985Z,19.45
2023-09-06T05:50:29.158Z,19.46
2023-09-06T05:52:56.319Z,19.46
2023-09-06T05:55:22.998Z,19.51
2023-09-06T05:57:49.740Z,19.42
2023-09-06T06:00:19.103Z,19.35
2023-09-06T06:02:49.960Z,19.39
2023-09-06T06:05:19.600Z,19.37
2023-09-06T06:07:47.151Z,19.43
2023-09-06T06:10:14.292Z,19.44
2023-09-06T06:12:42.302Z,19.51
2023-09-06T06:15:10.029Z,19.41
2023-09-06T06:17:37.379Z,19.52
2023-09-06T06:20:08.113Z,19.53
2023-09-06T06:22:39.036Z,19.49
2023-09-06T06:25:10.103Z,19.56
2023-09-06T06:27:38.240Z,19.62
2023-09-06T06:30:08.742Z,19.63
2023-09-06T06:32:35.809Z,19.66
2023-09-06T06:35:06.723Z,19.61
2023-09-06T06:37:34.468Z,19.64
2023-09-06T06:40:01.072Z,19.60
2023-09-06T06:42:28.321Z,19.70
2023-09-06T06:44:54.960Z,19.66
2023-09-06T06:47:21.473Z,19.63
2023-09-06T06:49:51.017Z,19.70
2023-09-06T06:52:17.568Z,19.77
2023-09-06T06:54:44.101Z,19.76
2023-09-06T06:57:11.509Z,19.79
2023-09-06T06:59:37.984Z,19.88
2023-09-06T07:02:04.908Z,19.96
2023-09-06T07:04:31.663Z,19.86
2023-09-06T07:06:58.158Z,19.94
2023-09-06T07:09:24.620Z,19.98
2023-09-06T07:11:51.171Z,20.02
2023-09-06T07:14:17.767Z,20.13
2023-09-06T07:16:44.481Z,20.27
2023-09-06T07:19:11.190Z,20.27
2023-09-06T07:21:37.650Z,20.40
2023-09-06T07:24:05.153Z,20.69
2023-09-06T07:26:32.244Z,20.72
2023-09-06T07:28:58.774Z,20.95
2023-09-06T07:31:25.356Z,21.51
2023-09-06T07:33:52.160Z,21.89
2023-09-06T07:36:20.055Z,22.80
2023-09-06T07:38:47.061Z,23.23
2023-09-06T07:41:13.777Z,23.95
2023-09-06T07:43:40.444Z,24.26
2023-09-06T07:46:10.872Z,25.17
2023-09-06T07:48:39.925Z,25.50
2023-09-06T07:51:06.953Z,25.64
2023-09-06T07:53:33.613Z,25.26
2023-09-06T07:56:00.246Z,25.79
2023-09-06T07:58:28.925Z,26.11
2023-09-06T08:01:15.279Z,26.38
2023-09-06T08:03:43.580Z,26.17
2023-09-06T08:06:10.256Z,26.71
2023-09-06T08:08:36.819Z,27.37
2023-09-06T08:11:05.672Z,27.91
2023-09-06T08:13:32.384Z,26.81
2023-09-06T08:15:59.084Z,26.57
2023-09-06T08:18:25.805Z,27.23
2023-09-06T08:20:52.898Z,28.17
2023-09-06T08:23:19.384Z,28.10
2023-09-06T08:25:47.249Z,28.65
2023-09-06T08:28:16.406Z,28.63
2023-09-06T08:30:45.355Z,28.60
2023-09-06T08:33:12.329Z,29.46
2023-09-06T08:35:39.047Z,29.01
2023-09-06T08:38:06.073Z,28.90
2023-09-06T08:40:32.491Z,29.30
2023-09-06T08:43:03.834Z,29.46
2023-09-06T08:45:30.809Z,29.89
2023-09-06T08:47:58.020Z,30.12
2023-09-06T08:50:24.545Z,30.48
2023-09-06T08:52:52.860Z,30.00
2023-09-06T08:55:19.931Z,30.74
2023-09-06T08:57:47.955Z,30.95
2023-09-06T09:00:15.399Z,30.91
2023-09-06T09:02:43.856Z,31.21
2023-09-06T09:05:19.885Z,31.18
2023-09-06T09:07:50.819Z,30.88
2023-09-06T09:10:17.813Z,31.33
2023-09-06T09:12:44.461Z,30.34
2023-09-06T09:17:57.093Z,30.50
2023-09-06T09:20:27.907Z,31.06
2023-09-06T09:22:59.472Z,30.67
2023-09-06T09:25:25.996Z,31.22
2023-09-06T09:27:57.158Z,31.62
2023-09-06T09:30:24.949Z,31.53
2023-09-06T09:33:03.309Z,31.86
2023-09-06T09:35:32.661Z,32.10
2023-09-06T09:38:02.205Z,32.31
2023-09-06T09:40:46.024Z,32.73
2023-09-06T09:43:18.640Z,31.96
2023-09-06T09:45:47.366Z,32.81
2023-09-06T09:48:16.555Z,32.43
2023-09-06T09:50:45.287Z,32.85
2023-09-06T09:55:48.960Z,32.10
2023-09-06T09:58:17.206Z,32.50
2023-09-06T10:00:44.468Z,32.45
2023-09-06T10:03:11.866Z,33.19
2023-09-06T10:05:39.584Z,33.45
2023-09-06T10:08:10.456Z,33.66
2023-09-06T10:10:41.600Z,33.32
2023-09-06T10:13:11.445Z,33.63
2023-09-06T10:15:39.347Z,33.63
2023-09-06T10:18:07.628Z,33.29
2023-09-06T10:20:36.204Z,33.56
2023-09-06T10:23:05.901Z,34.05
2023-09-06T10:25:33.187Z,34.36
2023-09-06T10:28:02.904Z,34.46
2023-09-06T10:30:52.433Z,34.56
2023-09-06T10:33:43.346Z,34.32
2023-09-06T10:36:13.065Z,34.87
2023-09-06T10:38:51.640Z,34.38
2023-09-06T10:41:20.061Z,34.20
2023-09-06T10:43:56.436Z,33.56
2023-09-06T10:46:30.703Z,34.74
2023-09-06T10:49:30.895Z,34.10
2023-09-06T10:52:09.336Z,34.70
2023-09-06T10:54:44.826Z,34.13
2023-09-06T10:57:13.443Z,34.69
2023-09-06T10:59:56.848Z,34.86
2023-09-06T11:02:23.582Z,34.81
2023-09-06T11:05:12.512Z,34.78
2023-09-06T11:07:48.701Z,34.78
2023-09-06T11:10:23.654Z,34.20
2023-09-06T11:12:50.538Z,34.22
2023-09-06T11:15:17.064Z,34.73
2023-09-06T11:17:46.635Z,34.86
2023-09-06T11:20:16.111Z,34.71
2023-09-06T11:22:56.897Z,34.70
2023-09-06T11:25:25.015Z,34.56
2023-09-06T11:27:52.653Z,34.80
2023-09-06T11:30:27.900Z,34.33
2023-09-06T11:32:56.387Z,34.38
2023-09-06T11:35:36.166Z,34.12
2023-09-06T11:38:04.188Z,34.64
2023-09-06T11:40:33.490Z,34.27
2023-09-06T11:43:06.266Z,34.30
2023-09-06T11:45:34.038Z,34.40
2023-09-06T11:48:05.705Z,34.63
2023-09-06T11:50:35.483Z,34.33
2023-09-06T11:53:05.955Z,34.49
2023-09-06T11:55:35.558Z,34.51
2023-09-06T11:58:02.150Z,34.51
2023-09-06T12:00:46.789Z,34.19
2023-09-06T12:03:14.908Z,34.27
2023-09-06T12:05:49.008Z,34.02
2023-09-06T12:08:21.637Z,33.78
2023-09-06T12:10:53.669Z,34.27
2023-09-06T12:13:30.884Z,34.02
2023-09-06T12:15:58.404Z,34.27
2023-09-06T12:18:26.523Z,33.93
2023-09-06T12:20:53.205Z,34.08
2023-09-06T12:23:22.468Z,33.82
2023-09-06T12:25:48.982Z,33.88
2023-09-06T12:28:15.405Z,34.08
2023-09-06T12:30:41.966Z,33.88
2023-09-06T12:33:08.533Z,33.98
2023-09-06T12:35:39.390Z,33.90
2023-09-06T12:38:07.448Z,33.69
2023-09-06T12:40:35.076Z,33.76
2023-09-06T12:43:04.088Z,33.62
2023-09-06T12:45:32.330Z,33.54
2023-09-06T12:48:00.085Z,33.14
2023-09-06T12:50:27.640Z,33.05
2023-09-06T12:52:55.548Z,33.10
2023-09-06T12:55:22.343Z,33.50
2023-09-06T12:57:51.789Z,33.37
2023-09-06T13:00:18.578Z,33.60
2023-09-06T13:02:45.160Z,32.84
2023-09-06T13:05:12.023Z,32.84
2023-09-06T13:07:38.890Z,32.64
2023-09-06T13:10:06.552Z,32.93
2023-09-06T13:12:34.171Z,33.03
2023-09-06T13:15:01.360Z,33.12
2023-09-06T13:17:28.098Z,32.61
2023-09-06T13:19:55.903Z,32.67
2023-09-06T13:22:22.559Z,32.06
2023-09-06T13:24:50.094Z,32.25
2023-09-06T13:27:16.685Z,32.62
2023-09-06T13:29:43.164Z,32.23
2023-09-06T13:32:10.090Z,32.14
2023-09-06T13:34:40.001Z,32.02
2023-09-06T13:37:06.691Z,31.95
2023-09-06T13:39:33.510Z,31.89
2023-09-06T13:42:01.982Z,31.88
2023-09-06T13:44:32.414Z,31.59
2023-09-06T13:46:59.484Z,31.46
2023-09-06T13:49:26.584Z,31.43
2023-09-06T13:51:53.059Z,31.14
2023-09-06T13:54:19.594Z,30.93
2023-09-06T13:56:50.859Z,31.03
2023-09-06T13:59:18.383Z,30.98
2023-09-06T14:01:45.612Z,30.93
2023-09-06T14:04:12.516Z,31.02
2023-09-06T14:06:39.650Z,30.92
2023-09-06T14:09:08.763Z,30.83
2023-09-06T14:11:36.081Z,30.66
2023-09-06T14:14:02.640Z,30.29
2023-09-06T14:16:29.164Z,30.22
2023-09-06T14:18:55.992Z,30.22
2023-09-06T14:21:22.517Z,30.04
2023-09-06T14:23:50.236Z,29.98
2023-09-06T14:26:17.001Z,30.06
2023-09-06T14:28:43.616Z,30.16
2023-09-06T14:31:11.805Z,30.21
2023-09-06T14:33:39.573Z,30.06
2023-09-06T14:36:06.740Z,30.02
2023-09-06T14:38:34.272Z,29.82
2023-09-06T14:41:01.030Z,29.89
2023-09-06T14:43:28.670Z,29.79
2023-09-06T14:46:05.634Z,29.81
2023-09-06T14:48:32.840Z,29.69
2023-09-06T14:51:04.672Z,29.54
2023-09-06T14:53:31.432Z,29.44
2023-09-06T14:56:01.520Z,29.38
2023-09-06T14:58:28.801Z,29.27
2023-09-06T15:00:56.105Z,29.24
2023-09-06T15:03:24.385Z,29.18
2023-09-06T15:05:51.461Z,29.01
2023-09-06T15:08:18.632Z,29.05
2023-09-06T15:10:45.789Z,28.95
2023-09-06T15:13:15.829Z,28.87
2023-09-06T15:15:44.311Z,28.87
2023-09-06T15:18:11.290Z,28.87
2023-09-06T15:20:38.382Z,28.70
2023-09-06T15:23:05.905Z,28.62
2023-09-06T15:25:34.276Z,28.58
2023-09-06T15:28:00.821Z,28.45
2023-09-06T15:30:27.589Z,28.39
2023-09-06T15:32:54.190Z,28.33
2023-09-06T15:35:28.805Z,28.28
2023-09-06T15:38:00.488Z,28.21
2023-09-06T15:40:27.096Z,28.26
2023-09-06T15:42:53.695Z,28.20
2023-09-06T15:45:20.192Z,28.10
2023-09-06T15:47:49.114Z,28.15
2023-09-06T15:50:19.640Z,28.13
2023-09-06T15:52:48.334Z,28.04
2023-09-06T15:55:14.898Z,28.03
2023-09-06T15:57:42.835Z,27.97
2023-09-06T16:00:24.376Z,28.00
2023-09-06T16:02:57.623Z,27.94
2023-09-06T16:05:24.529Z,27.90
2023-09-06T16:07:51.017Z,27.84
2023-09-06T16:10:17.607Z,27.81
2023-09-06T16:12:47.469Z,27.85
2023-09-06T16:15:16.918Z,27.83
2023-09-06T16:17:43.845Z,27.77
2023-09-06T16:20:12.294Z,27.80
2023-09-06T16:22:39.316Z,27.68
2023-09-06T16:25:08.853Z,27.76
2023-09-06T16:27:35.768Z,27.66
2023-09-06T16:30:05.646Z,27.43
2023-09-06T16:32:33.178Z,27.39
2023-09-06T16:35:00.162Z,27.34
2023-09-06T16:37:27.617Z,27.36
2023-09-06T16:39:54.277Z,27.30
2023-09-06T16:42:22.559Z,27.30
2023-09-06T16:44:48.970Z,27.19
2023-09-06T16:47:15.504Z,27.14
2023-09-06T16:49:43.830Z,27.05
2023-09-06T16:52:10.604Z,27.04
2023-09-06T16:54:37.477Z,27.08
2023-09-06T16:57:05.244Z,26.96
2023-09-06T16:59:32.642Z,26.88
2023-09-06T17:01:59.558Z,26.90
2023-09-06T17:04:26.452Z,26.87
2023-09-06T17:06:52.977Z,26.71
2023-09-06T17:09:19.431Z,26.70
2023-09-06T17:11:45.899Z,26.74
2023-09-06T17:14:12.716Z,26.64
2023-09-06T17:16:40.334Z,26.57
2023-09-06T17:19:10.034Z,26.51
2023-09-06T17:21:39.946Z,26.39
2023-09-06T17:24:08.598Z,26.35
2023-09-06T17:26:37.618Z,26.36
2023-09-06T17:29:07.725Z,26.18
2023-09-06T17:31:37.812Z,26.22
2023-09-06T17:34:04.586Z,26.07
2023-09-06T17:36:31.032Z,26.11
2023-09-06T17:38:57.560Z,26.14
2023-09-06T17:41:24.715Z,25.99
2023-09-06T17:43:51.939Z,25.97
2023-09-06T17:46:25.236Z,25.99
2023-09-06T17:48:54.039Z,25.83
2023-09-06T17:51:21.036Z,25.80
2023-09-06T17:53:48.918Z,25.78
2023-09-06T17:56:17.688Z,25.72
2023-09-06T17:58:46.507Z,25.72
2023-09-06T18:01:17.245Z,25.75
2023-09-06T18:06:25.590Z,25.55
2023-09-06T18:08:58.336Z,25.35
2023-09-06T18:11:25.854Z,25.30
2023-09-06T18:13:52.893Z,25.16
2023-09-06T18:16:20.278Z,25.18
2023-09-06T18:18:47.374Z,25.10
2023-09-06T18:21:15.017Z,25.06
2023-09-06T18:23:44.126Z,24.85
2023-09-06T18:26:11.675Z,24.88
2023-09-06T18:28:38.663Z,24.79
2023-09-06T18:31:05.523Z,24.71
2023-09-06T18:33:32.140Z,24.77
2023-09-06T18:35:58.808Z,24.77
2023-09-06T18:38:27.795Z,24.79
2023-09-06T18:40:57.050Z,24.87
2023-09-06T18:43:24.208Z,24.91
2023-09-06T18:45:51.725Z,24.87
2023-09-06T18:48:20.677Z,24.82
2023-09-06T18:50:48.568Z,24.62
2023-09-06T18:53:15.234Z,24.65
2023-09-06T18:55:44.813Z,24.64
2023-09-06T18:58:12.745Z,24.61
2023-09-06T19:00:40.657Z,24.62
2023-09-06T19:03:12.783Z,24.55
2023-09-06T19:05:43.401Z,24.52
2023-09-06T19:08:13.090Z,24.48
2023-09-06T19:10:41.480Z,24.43
2023-09-06T19:13:09.288Z,24.44
2023-09-06T19:15:37.111Z,24.34
2023-09-06T19:18:04.204Z,24.38
2023-09-06T19:20:30.820Z,24.38
2023-09-06T19:22:57.505Z,24.33
2023-09-06T19:25:28.544Z,24.30
2023-09-06T19:27:55.374Z,24.30
2023-09-06T19:30:22.046Z,24.17
2023-09-06T19:32:48.684Z,24.21
2023-09-06T19:35:15.425Z,24.14
2023-09-06T19:37:42.141Z,24.14
2023-09-06T19:40:09.626Z,24.09
2023-09-06T19:42:36.353Z,24.06
2023-09-06T19:45:03.126Z,23.91
2023-09-06T19:47:29.827Z,23.95
2023-09-06T19:49:57.195Z,23.86
2023-09-06T19:52:24.003Z,23.69
2023-09-06T19:54:50.610Z,23.83
2023-09-06T19:57:17.180Z,23.79
2023-09-06T19:59:43.983Z,23.75
2023-09-06T20:02:10.600Z,23.82
2023-09-06T20:04:37.367Z,23.69
2023-09-06T20:07:05.370Z,23.73
2023-09-06T20:09:32.140Z,23.90
2023-09-06T20:11:59.128Z,23.73
2023-09-06T20:14:28.866Z,23.77
2023-09-06T20:16:58.321Z,23.66
2023-09-06T20:19:24.983Z,23.71
2023-09-06T20:21:51.717Z,23.74
2023-09-06T20:24:18.254Z,23.71
2023-09-06T20:26:45.196Z,23.61
2023-09-06T20:29:11.785Z,23.42
2023-09-06T20:31:38.767Z,23.23
2023-09-06T20:34:05.427Z,23.19
2023-09-06T20:36:33.456Z,23.08
2023-09-06T20:39:00.123Z,23.07
2023-09-06T20:41:26.736Z,23.12
2023-09-06T20:43:53.219Z,23.12
2023-09-06T20:46:19.771Z,23.12
2023-09-06T20:48:47.343Z,23.12
2023-09-06T20:51:17.254Z,23.09
2023-09-06T20:53:44.666Z,23.04
2023-09-06T20:56:12.095Z,22.98
2023-09-06T20:58:39.113Z,23.05
2023-09-06T21:01:16.694Z,22.94
2023-09-06T21:03:44.436Z,22.92
2023-09-06T21:06:11.868Z,22.88
2023-09-06T21:08:38.493Z,22.79
2023-09-06T21:11:05.210Z,22.77
2023-09-06T21:13:33.537Z,22.67
2023-09-06T21:16:02.622Z,22.59
2023-09-06T21:18:30.467Z,22.62
2023-09-06T21:20:57.909Z,22.63
2023-09-06T21:23:24.498Z,22.58
2023-09-06T21:25:51.425Z,22.63
2023-09-06T21:28:18.032Z,22.72
2023-09-06T21:30:47.022Z,22.54
2023-09-06T21:33:14.525Z,22.46
2023-09-06T21:35:45.254Z,22.32
2023-09-06T21:38:13.107Z,22.46
2023-09-06T21:40:44.197Z,22.53
2023-09-06T21:43:17.897Z,22.41
2023-09-06T21:45:45.810Z,22.46
2023-09-06T21:48:12.642Z,22.44
2023-09-06T21:50:41.389Z,22.19
2023-09-06T21:53:08.254Z,22.34
2023-09-06T21:55:34.849Z,22.26
2023-09-06T21:58:09.484Z,22.22
2023-09-06T22:00:36.767Z,22.21
2023-09-06T22:03:03.514Z,22.12
2023-09-06T22:05:30.089Z,22.13
2023-09-06T22:07:56.907Z,22.10
2023-09-06T22:10:23.406Z,22.03
2023-09-06T22:12:50.016Z,22.11
2023-09-06T22:15:16.638Z,22.11
2023-09-06T22:17:43.403Z,22.05
2023-09-06T22:20:10.546Z,22.06
2023-09-06T22:22:37.196Z,22.02
2023-09-06T22:25:05.812Z,22.00
2023-09-06T22:27:32.489Z,21.93
2023-09-06T22:29:59.028Z,21.97
2023-09-06T22:32:25.538Z,22.05
2023-09-06T22:34:51.989Z,21.99
2023-09-06T22:37:18.607Z,21.99
2023-09-06T22:39:45.156Z,21.99
2023-09-06T22:42:12.307Z,21.95
2023-09-06T22:44:38.975Z,22.01
2023-09-06T22:47:05.601Z,22.01
2023-09-06T22:49:32.190Z,21.91
2023-09-06T22:51:58.755Z,21.84
2023-09-06T22:54:25.432Z,21.88
2023-09-06T22:56:51.995Z,21.90
2023-09-06T22:59:18.792Z,21.91
2023-09-06T23:01:45.607Z,21.90
2023-09-06T23:04:12.449Z,21.86
2023-09-06T23:06:39.159Z,21.90
2023-09-06T23:09:08.301Z,21.85
2023-09-06T23:11:35.594Z,21.84
2023-09-06T23:14:06.378Z,21.80
2023-09-06T23:16:36.897Z,21.80
2023-09-06T23:19:04.276Z,21.79
2023-09-06T23:21:39.077Z,21.67
2023-09-06T23:24:12.915Z,21.65
2023-09-06T23:26:40.411Z,21.62
2023-09-06T23:29:08.447Z,21.61
2023-09-06T23:31:40.242Z,21.58
2023-09-06T23:34:15.646Z,21.60
2023-09-06T23:36:42.609Z,21.53
2023-09-06T23:39:12.853Z,21.51
2023-09-06T23:41:42.682Z,21.39
2023-09-06T23:44:09.766Z,21.40
2023-09-06T23:49:08.283Z,21.33
2023-09-06T23:51:34.896Z,21.29
2023-09-06T23:54:01.399Z,21.19
2023-09-06T23:56:27.855Z,21.19
2023-09-06T23:58:54.465Z,21.27
